createdAt,value
2019-04-03T00:03:59.909Z,36.73
2019-04-03T00:06:29.292Z,36.95
2019-04-03T00:08:58.766Z,37.12
2019-04-03T00:11:28.056Z,36.99
2019-04-03T00:13:57.605Z,37.18
2019-04-03T00:16:26.810Z,37.30
2019-04-03T00:18:56.085Z,37.41
2019-04-03T00:21:25.319Z,37.54
2019-04-03T00:23:54.623Z,37.39
2019-04-03T00:26:24.108Z,37.50
2019-04-03T00:28:53.493Z,37.60
2019-04-03T00:31:23.352Z,37.81
2019-04-03T00:33:53.957Z,37.90
2019-04-03T00:36:23.791Z,37.91
2019-04-03T00:38:54.765Z,38.17
2019-04-03T00:41:25.229Z,38.13
2019-04-03T00:43:55.060Z,38.03
2019-04-03T00:46:25.476Z,38.11
2019-04-03T00:48:55.856Z,38.24
2019-04-03T00:51:27.501Z,38.30
2019-04-03T00:53:58.005Z,38.25
2019-04-03T00:56:28.014Z,38.32
2019-04-03T01:01:32.179Z,38.77
2019-04-03T01:04:01.472Z,38.81
2019-04-03T01:06:31.047Z,38.64
2019-04-03T01:09:00.246Z,38.69
2019-04-03T01:11:30.595Z,38.84
2019-04-03T01:14:01.845Z,38.82
2019-04-03T01:16:33.086Z,38.84
2019-04-03T01:19:05.114Z,38.84
2019-04-03T01:21:33.352Z,39.08
2019-04-03T01:24:02.545Z,39.17
2019-04-03T01:26:31.903Z,39.27
2019-04-03T01:29:01.109Z,39.37
2019-04-03T01:31:30.385Z,39.17
2019-04-03T01:33:59.973Z,38.80
2019-04-03T01:36:29.249Z,38.84
2019-04-03T01:38:58.457Z,38.99
2019-04-03T01:41:27.736Z,38.82
2019-04-03T01:43:56.934Z,38.73
2019-04-03T01:46:27.630Z,38.90
2019-04-03T01:48:58.431Z,39.03
2019-04-03T01:51:29.745Z,39.06
2019-04-03T01:53:59.328Z,39.33
2019-04-03T01:56:28.520Z,39.30
2019-04-03T01:58:58.107Z,39.41
2019-04-03T02:01:27.312Z,39.50
2019-04-03T02:03:56.581Z,39.58
2019-04-03T02:06:25.898Z,39.20
2019-04-03T02:08:55.119Z,39.10
2019-04-03T02:11:24.321Z,39.02
2019-04-03T02:13:53.589Z,39.34
2019-04-03T02:16:23.209Z,39.45
2019-04-03T02:18:55.460Z,39.65
2019-04-03T02:21:27.205Z,39.55
2019-04-03T02:23:55.823Z,39.64
2019-04-03T02:26:24.995Z,39.50
2019-04-03T02:28:54.261Z,39.51
2019-04-03T02:31:23.463Z,39.70
2019-04-03T02:33:52.743Z,39.75
2019-04-03T02:36:21.947Z,39.73
2019-04-03T02:38:51.541Z,39.75
2019-04-03T02:41:22.372Z,39.94
2019-04-03T02:43:51.887Z,40.03
2019-04-03T02:46:22.568Z,40.19
2019-04-03T02:48:51.922Z,40.38
2019-04-03T02:51:21.129Z,40.52
2019-04-03T02:53:50.410Z,40.49
2019-04-03T02:56:19.590Z,40.89
2019-04-03T02:58:48.864Z,40.91
2019-04-03T03:01:18.078Z,40.91
2019-04-03T03:03:49.434Z,40.72
2019-04-03T03:06:18.428Z,40.65
2019-04-03T03:09:27.070Z,40.75
2019-04-03T03:12:35.650Z,40.79
2019-04-03T03:15:45.017Z,40.86
2019-04-03T03:18:15.744Z,40.87
2019-04-03T03:27:16.769Z,40.74
2019-04-03T03:30:39.624Z,40.77
2019-04-03T03:36:44.685Z,40.83
2019-04-03T03:42:10.844Z,41.38
2019-04-03T03:48:15.195Z,41.32
2019-04-03T03:51:24.294Z,41.67
2019-04-03T03:54:32.953Z,41.72
2019-04-03T03:57:41.843Z,41.86
2019-04-03T04:00:52.331Z,41.71
2019-04-03T04:04:01.058Z,41.93
2019-04-03T04:06:34.794Z,42.21
2019-04-03T04:09:22.461Z,42.28
2019-04-03T04:12:12.359Z,42.17
2019-04-03T04:14:41.966Z,42.14
2019-04-03T04:17:15.492Z,42.00
2019-04-03T04:19:43.131Z,42.14
2019-04-03T04:22:15.604Z,42.15
2019-04-03T04:24:44.409Z,41.94
2019-04-03T04:27:13.853Z,41.66
2019-04-03T04:32:37.872Z,41.93
2019-04-03T04:35:10.355Z,42.00
2019-04-03T04:37:40.134Z,41.87
2019-04-03T04:40:09.993Z,42.00
2019-04-03T04:42:39.879Z,41.79
2019-04-03T04:45:09.797Z,41.80
2019-04-03T04:47:40.148Z,41.57
2019-04-03T04:50:09.352Z,41.72
2019-04-03T04:52:38.635Z,41.52
2019-04-03T04:55:08.204Z,41.67
2019-04-03T04:57:41.008Z,41.79
2019-04-03T05:00:09.794Z,42.29
2019-04-03T05:02:39.096Z,42.28
2019-04-03T05:05:09.181Z,42.25
2019-04-03T05:07:39.304Z,42.44
2019-04-03T05:10:08.619Z,42.43
2019-04-03T05:12:39.086Z,42.53
2019-04-03T05:15:48.462Z,42.36
2019-04-03T05:18:17.707Z,42.27
2019-04-03T05:20:49.077Z,42.20
2019-04-03T05:23:18.772Z,42.22
2019-04-03T05:25:47.977Z,42.70
2019-04-03T05:28:17.236Z,42.89
2019-04-03T05:30:49.293Z,42.86
2019-04-03T05:33:18.573Z,43.18
2019-04-03T05:35:47.782Z,42.77
2019-04-03T05:38:17.073Z,42.49
2019-04-03T05:40:46.270Z,42.23
2019-04-03T05:43:15.948Z,42.17
2019-04-03T05:45:45.323Z,42.17
2019-04-03T05:48:17.688Z,42.01
2019-04-03T05:53:41.254Z,42.32
2019-04-03T05:56:12.590Z,42.13
2019-04-03T05:58:53.774Z,41.85
2019-04-03T06:01:12.672Z,41.83
2019-04-03T06:03:44.895Z,41.99
2019-04-03T06:06:14.421Z,42.06
2019-04-03T06:08:43.802Z,42.01
2019-04-03T06:11:13.253Z,41.95
2019-04-03T06:13:42.500Z,41.95
2019-04-03T06:16:11.779Z,41.75
2019-04-03T06:18:40.985Z,41.81
2019-04-03T06:21:10.487Z,41.65
2019-04-03T06:23:41.191Z,41.76
2019-04-03T06:26:10.471Z,41.75
2019-04-03T06:28:42.417Z,41.47
2019-04-03T06:31:10.671Z,41.46
2019-04-03T06:33:40.071Z,41.31
2019-04-03T06:36:09.334Z,41.18
2019-04-03T06:38:38.763Z,41.37
2019-04-03T06:41:09.653Z,41.37
2019-04-03T06:43:38.927Z,41.10
2019-04-03T06:46:09.839Z,41.04
2019-04-03T06:48:39.196Z,40.77
2019-04-03T06:51:09.269Z,40.80
2019-04-03T06:53:38.445Z,40.73
2019-04-03T06:56:08.927Z,40.66
2019-04-03T06:58:40.191Z,40.57
2019-04-03T07:01:09.697Z,40.54
2019-04-03T07:03:39.229Z,40.65
2019-04-03T07:06:08.979Z,40.47
2019-04-03T07:08:41.108Z,40.80
2019-04-03T07:11:22.853Z,40.81
2019-04-03T07:13:42.099Z,40.73
2019-04-03T07:16:11.673Z,40.77
2019-04-03T07:18:42.320Z,40.68
2019-04-03T07:23:46.054Z,40.19
2019-04-03T07:26:15.345Z,39.75
2019-04-03T07:28:44.554Z,39.63
2019-04-03T07:31:13.857Z,39.73
2019-04-03T07:33:43.068Z,39.77
2019-04-03T07:36:12.334Z,39.43
2019-04-03T07:38:41.643Z,39.08
2019-04-03T07:41:10.846Z,38.69
2019-04-03T07:43:40.326Z,38.80
2019-04-03T07:46:09.510Z,38.13
2019-04-03T07:48:38.869Z,38.00
2019-04-03T07:51:08.461Z,38.70
2019-04-03T07:53:39.220Z,39.56
2019-04-03T07:56:08.816Z,39.33
2019-04-03T07:58:38.105Z,38.75
2019-04-03T08:01:09.545Z,38.32
2019-04-03T08:03:39.204Z,38.42
2019-04-03T08:06:08.415Z,37.75
2019-04-03T08:08:37.619Z,37.65
2019-04-03T08:11:07.011Z,37.29
2019-04-03T08:13:38.387Z,37.09
2019-04-03T08:16:07.306Z,37.76
2019-04-03T08:18:36.516Z,37.25
2019-04-03T08:21:05.997Z,37.54
2019-04-03T08:23:36.722Z,37.08
2019-04-03T08:26:06.215Z,36.96
2019-04-03T08:28:35.438Z,36.70
2019-04-03T08:34:00.172Z,36.07
2019-04-03T08:36:29.558Z,35.63
2019-04-03T08:39:00.587Z,35.57
2019-04-03T08:41:48.940Z,35.43
2019-04-03T08:44:18.355Z,35.43
2019-04-03T08:47:06.687Z,35.35
2019-04-03T08:49:36.508Z,35.35
2019-04-03T08:52:06.179Z,35.15
2019-04-03T08:54:36.722Z,35.19
2019-04-03T08:57:25.013Z,34.92
2019-04-03T08:59:54.295Z,34.92
2019-04-03T09:02:23.505Z,34.88
2019-04-03T09:04:52.948Z,35.01
2019-04-03T09:07:24.634Z,35.33
2019-04-03T09:09:53.218Z,35.45
2019-04-03T09:12:22.404Z,35.59
2019-04-03T09:17:45.809Z,34.61
2019-04-03T09:20:35.566Z,35.11
2019-04-03T09:23:05.369Z,35.11
2019-04-03T09:25:36.003Z,33.39
2019-04-03T09:28:12.675Z,32.98
2019-04-03T09:30:41.820Z,33.18
2019-04-03T09:33:11.256Z,32.96
2019-04-03T09:35:42.817Z,33.12
2019-04-03T09:38:11.829Z,33.09
2019-04-03T09:40:41.352Z,33.16
2019-04-03T09:43:10.654Z,32.57
2019-04-03T09:46:00.641Z,31.39
2019-04-03T09:48:41.855Z,31.39
2019-04-03T09:51:11.129Z,31.23
2019-04-03T09:53:40.400Z,31.82
2019-04-03T09:56:28.920Z,32.01
2019-04-03T09:58:58.581Z,31.60
2019-04-03T10:01:27.757Z,30.96
2019-04-03T10:03:57.020Z,31.17
2019-04-03T10:06:26.446Z,31.10
2019-04-03T10:08:57.210Z,30.94
2019-04-03T10:11:26.415Z,30.78
2019-04-03T10:13:57.494Z,30.71
2019-04-03T10:16:26.600Z,30.71
2019-04-03T10:18:55.867Z,30.66
2019-04-03T10:21:44.242Z,30.35
2019-04-03T10:24:13.493Z,29.70
2019-04-03T10:26:42.698Z,30.55
2019-04-03T10:29:12.033Z,30.89
2019-04-03T10:31:41.640Z,30.68
2019-04-03T10:34:14.447Z,31.43
2019-04-03T10:36:43.779Z,30.99
2019-04-03T10:39:15.949Z,31.40
2019-04-03T10:41:46.217Z,30.66
2019-04-03T10:44:15.475Z,30.96
2019-04-03T10:46:44.665Z,31.12
2019-04-03T10:49:14.020Z,30.40
2019-04-03T10:51:43.863Z,30.62
2019-04-03T10:54:14.595Z,30.58
2019-04-03T10:56:44.120Z,30.14
2019-04-03T10:59:17.944Z,29.65
2019-04-03T11:01:46.100Z,29.93
2019-04-03T11:06:50.507Z,30.25
2019-04-03T11:09:19.929Z,30.23
2019-04-03T11:11:49.129Z,29.94
2019-04-03T11:14:18.698Z,30.13
2019-04-03T11:16:49.324Z,30.11
2019-04-03T11:19:19.815Z,29.58
2019-04-03T11:21:49.753Z,29.57
2019-04-03T11:24:20.451Z,29.56
2019-04-03T11:26:51.762Z,29.21
2019-04-03T11:29:20.742Z,29.40
2019-04-03T11:34:44.628Z,29.34
2019-04-03T11:37:13.898Z,28.14
2019-04-03T11:39:45.656Z,26.37
2019-04-03T11:42:23.886Z,26.30
2019-04-03T11:44:45.207Z,26.71
2019-04-03T11:47:14.764Z,26.88
2019-04-03T11:49:44.514Z,27.04
2019-04-03T11:52:13.697Z,26.67
2019-04-03T11:55:01.894Z,26.49
2019-04-03T11:57:31.420Z,26.53
2019-04-03T12:00:01.081Z,26.72
2019-04-03T12:02:30.356Z,26.77
2019-04-03T12:05:01.330Z,26.94
2019-04-03T12:07:30.589Z,27.06
2019-04-03T12:10:02.785Z,27.05
2019-04-03T12:12:30.775Z,26.87
2019-04-03T12:14:59.961Z,26.74
2019-04-03T12:17:30.306Z,26.14
2019-04-03T12:20:00.183Z,26.31
2019-04-03T12:22:29.490Z,26.47
2019-04-03T12:24:58.651Z,26.40
2019-04-03T12:27:27.910Z,25.91
2019-04-03T12:29:57.097Z,26.25
2019-04-03T12:32:36.660Z,26.01
2019-04-03T12:34:57.553Z,25.51
2019-04-03T12:37:28.225Z,25.29
2019-04-03T12:39:58.235Z,24.66
2019-04-03T12:42:28.816Z,24.20
2019-04-03T12:44:59.835Z,23.59
2019-04-03T12:47:30.404Z,23.40
2019-04-03T12:49:59.856Z,23.33
2019-04-03T12:52:29.091Z,22.89
2019-04-03T12:54:58.672Z,23.01
2019-04-03T12:57:28.240Z,23.30
2019-04-03T12:59:57.847Z,23.42
2019-04-03T13:02:28.417Z,23.20
2019-04-03T13:05:00.240Z,22.75
2019-04-03T13:07:28.639Z,22.57
2019-04-03T13:09:57.970Z,22.35
2019-04-03T13:12:27.895Z,22.03
2019-04-03T13:14:58.264Z,21.94
2019-04-03T13:17:27.841Z,21.89
2019-04-03T13:20:03.215Z,21.63
2019-04-03T13:22:29.909Z,21.62
2019-04-03T13:25:00.635Z,21.23
2019-04-03T13:27:32.370Z,21.20
2019-04-03T13:30:02.449Z,21.44
2019-04-03T13:32:32.173Z,21.38
2019-04-03T13:35:04.224Z,21.41
2019-04-03T13:37:32.377Z,21.09
2019-04-03T13:40:05.019Z,20.86
2019-04-03T13:42:32.566Z,20.85
2019-04-03T13:45:01.827Z,21.16
2019-04-03T13:47:31.013Z,21.53
2019-04-03T13:50:03.313Z,21.89
2019-04-03T13:52:40.152Z,22.38
2019-04-03T13:55:03.797Z,22.68
2019-04-03T13:57:33.706Z,22.42
2019-04-03T14:02:59.622Z,22.20
2019-04-03T14:05:32.331Z,22.29
2019-04-03T14:08:00.477Z,22.21
2019-04-03T14:10:31.213Z,22.45
2019-04-03T14:13:00.396Z,22.08
2019-04-03T14:15:30.090Z,22.10
2019-04-03T14:17:59.332Z,21.84
2019-04-03T14:21:08.277Z,21.66
2019-04-03T14:23:40.622Z,22.12
2019-04-03T14:26:13.414Z,22.25
2019-04-03T14:28:42.094Z,22.11
2019-04-03T14:31:12.842Z,22.42
2019-04-03T14:33:45.677Z,22.60
2019-04-03T14:36:13.611Z,22.50
2019-04-03T14:38:44.275Z,22.56
2019-04-03T14:41:13.534Z,22.70
2019-04-03T14:43:43.054Z,22.70
2019-04-03T14:46:12.329Z,22.81
2019-04-03T14:48:41.634Z,22.80
2019-04-03T14:51:12.168Z,22.87
2019-04-03T14:53:41.850Z,22.88
2019-04-03T14:56:11.507Z,23.13
2019-04-03T14:58:42.551Z,23.09
2019-04-03T15:01:13.429Z,23.09
2019-04-03T15:03:42.594Z,23.46
2019-04-03T15:06:12.362Z,23.86
2019-04-03T15:08:42.793Z,24.07
2019-04-03T15:11:12.430Z,24.09
2019-04-03T15:13:43.183Z,24.17
2019-04-03T15:16:12.422Z,24.29
2019-04-03T15:21:16.530Z,23.99
2019-04-03T15:23:47.428Z,24.35
2019-04-03T15:26:19.421Z,24.63
2019-04-03T15:28:49.707Z,24.11
2019-04-03T15:31:20.246Z,24.15
2019-04-03T15:33:49.798Z,24.52
2019-04-03T15:36:19.437Z,24.61
2019-04-03T15:38:48.980Z,24.44
2019-04-03T15:41:18.357Z,24.47
2019-04-03T15:43:50.748Z,24.51
2019-04-03T15:46:18.725Z,24.05
2019-04-03T15:48:50.999Z,24.16
2019-04-03T15:51:20.950Z,24.58
2019-04-03T15:54:10.470Z,24.84
2019-04-03T15:59:15.312Z,24.83
2019-04-03T16:01:45.710Z,24.87
2019-04-03T16:04:14.946Z,24.92
2019-04-03T16:06:44.216Z,25.00
2019-04-03T16:09:13.480Z,25.08
2019-04-03T16:11:43.078Z,25.06
2019-04-03T16:14:13.695Z,25.01
2019-04-03T16:17:03.507Z,25.01
2019-04-03T16:19:33.406Z,25.41
2019-04-03T16:22:02.733Z,25.45
2019-04-03T16:24:32.452Z,25.28
2019-04-03T16:27:03.006Z,25.27
2019-04-03T16:29:32.630Z,25.30
2019-04-03T16:32:01.922Z,25.28
2019-04-03T16:34:31.434Z,25.36
2019-04-03T16:37:01.184Z,25.54
2019-04-03T16:39:32.948Z,25.57
2019-04-03T16:42:03.764Z,25.61
2019-04-03T16:44:34.533Z,25.75
2019-04-03T16:47:03.867Z,25.92
2019-04-03T16:49:33.520Z,26.03
2019-04-03T16:52:16.444Z,26.14
2019-04-03T16:54:57.423Z,26.15
2019-04-03T16:57:26.728Z,26.15
2019-04-03T16:59:56.794Z,26.48
2019-04-03T17:02:27.946Z,26.65
2019-04-03T17:04:57.374Z,26.84
2019-04-03T17:07:26.649Z,26.94
2019-04-03T17:09:55.868Z,27.03
2019-04-03T17:12:25.074Z,27.10
2019-04-03T17:14:56.328Z,27.13
2019-04-03T17:17:25.831Z,27.05
2019-04-03T17:19:55.594Z,27.15
2019-04-03T17:22:26.029Z,27.15
2019-04-03T17:24:56.412Z,27.20
2019-04-03T17:27:29.693Z,27.25
2019-04-03T17:29:57.290Z,27.30
2019-04-03T17:32:29.064Z,27.28
2019-04-03T17:34:57.474Z,27.33
2019-04-03T17:37:29.680Z,27.59
2019-04-03T17:39:57.722Z,27.65
2019-04-03T17:42:27.002Z,27.59
2019-04-03T17:44:56.206Z,27.81
2019-04-03T17:47:25.543Z,27.86
2019-04-03T17:49:54.750Z,28.05
2019-04-03T17:52:43.567Z,28.02
2019-04-03T17:55:13.172Z,28.16
2019-04-03T17:57:44.548Z,28.26
2019-04-03T18:00:14.420Z,28.15
2019-04-03T18:02:43.647Z,28.11
2019-04-03T18:05:52.293Z,28.17
2019-04-03T18:08:21.831Z,28.27
2019-04-03T18:10:51.441Z,28.71
2019-04-03T18:13:23.183Z,28.53
2019-04-03T18:18:41.407Z,28.94
2019-04-03T18:21:12.966Z,28.96
2019-04-03T18:23:41.807Z,28.77
2019-04-03T18:26:11.176Z,28.96
2019-04-03T18:28:40.733Z,29.14
2019-04-03T18:31:10.072Z,29.16
2019-04-03T18:33:39.489Z,29.22
2019-04-03T18:36:08.699Z,29.48
2019-04-03T18:38:38.545Z,29.35
2019-04-03T18:41:08.894Z,29.58
2019-04-03T18:43:38.901Z,29.46
2019-04-03T18:46:08.131Z,29.46
2019-04-03T18:48:37.667Z,29.44
2019-04-03T18:51:07.310Z,29.95
2019-04-03T18:53:36.555Z,29.59
2019-04-03T18:56:05.965Z,29.79
2019-04-03T18:58:35.177Z,29.81
2019-04-03T19:01:04.466Z,29.73
2019-04-03T19:03:36.192Z,30.21
2019-04-03T19:06:04.664Z,29.98
2019-04-03T19:08:33.858Z,30.14
2019-04-03T19:11:07.631Z,30.12
2019-04-03T19:13:34.141Z,30.25
2019-04-03T19:16:03.390Z,30.22
2019-04-03T19:18:32.599Z,30.42
2019-04-03T19:21:01.798Z,30.48
2019-04-03T19:23:31.351Z,30.41
2019-04-03T19:26:00.575Z,30.31
2019-04-03T19:28:29.825Z,30.45
2019-04-03T19:30:59.045Z,30.52
2019-04-03T19:33:28.363Z,30.77
2019-04-03T19:35:58.652Z,30.89
2019-04-03T19:38:28.559Z,30.87
2019-04-03T19:40:57.755Z,30.77
2019-04-03T19:43:27.067Z,30.70
2019-04-03T19:49:05.328Z,31.02
2019-04-03T19:51:37.194Z,31.01
2019-04-03T19:54:05.989Z,30.98
2019-04-03T19:56:35.270Z,31.17
2019-04-03T19:59:04.963Z,31.16
2019-04-03T20:01:38.770Z,31.49
2019-04-03T20:04:06.532Z,31.47
2019-04-03T20:09:49.922Z,36.77
2019-04-03T20:12:19.118Z,42.31
2019-04-03T20:14:57.891Z,46.64
2019-04-03T20:17:19.789Z,48.73
2019-04-03T20:19:48.971Z,51.07
2019-04-03T20:22:18.230Z,52.36
2019-04-03T20:24:59.454Z,53.14
2019-04-03T20:27:18.980Z,54.88
2019-04-03T20:29:48.891Z,56.21
2019-04-03T20:32:18.155Z,56.85
2019-04-03T20:34:47.372Z,57.27
2019-04-03T20:37:16.644Z,57.95
2019-04-03T20:39:46.133Z,57.67
2019-04-03T20:42:15.381Z,57.74
2019-04-03T20:44:48.001Z,57.60
2019-04-03T20:47:15.544Z,58.23
2019-04-03T20:49:44.739Z,58.59
2019-04-03T20:52:14.064Z,59.15
2019-04-03T20:54:43.264Z,59.46
2019-04-03T20:57:13.606Z,59.15
2019-04-03T20:59:52.526Z,59.48
2019-04-03T21:02:14.450Z,59.42
2019-04-03T21:04:46.471Z,59.45
2019-04-03T21:07:14.602Z,58.90
2019-04-03T21:09:43.835Z,58.45
2019-04-03T21:12:13.031Z,59.43
2019-04-03T21:14:42.273Z,59.21
2019-04-03T21:17:11.465Z,59.52
2019-04-03T21:19:40.715Z,59.39
2019-04-03T21:22:09.893Z,59.45
2019-04-03T21:27:34.129Z,59.48
2019-04-03T21:30:03.480Z,58.91
2019-04-03T21:32:32.679Z,58.62
2019-04-03T21:37:39.693Z,59.38
2019-04-03T21:40:07.698Z,60.05
2019-04-03T21:42:36.908Z,60.41
2019-04-03T21:45:07.508Z,60.51
2019-04-03T21:47:37.370Z,60.18
2019-04-03T21:50:46.001Z,60.28
2019-04-03T21:53:15.241Z,60.00
2019-04-03T21:55:44.489Z,59.97
2019-04-03T21:58:13.673Z,60.48
2019-04-03T22:04:00.954Z,61.40
2019-04-03T22:06:30.608Z,61.04
2019-04-03T22:09:00.673Z,61.33
2019-04-03T22:11:30.843Z,61.87
2019-04-03T22:14:00.043Z,61.69
2019-04-03T22:16:29.400Z,62.18
2019-04-03T22:18:58.586Z,61.57
2019-04-03T22:21:27.859Z,60.18
2019-04-03T22:23:57.104Z,58.98
2019-04-03T22:26:26.635Z,57.82
2019-04-03T22:28:55.900Z,57.57
2019-04-03T22:31:25.441Z,57.95
2019-04-03T22:33:54.702Z,59.36
2019-04-03T22:36:24.201Z,58.23
2019-04-03T22:38:53.471Z,57.34
2019-04-03T22:41:22.686Z,57.60
2019-04-03T22:43:51.935Z,57.84
2019-04-03T22:46:22.124Z,58.62
2019-04-03T22:48:52.495Z,59.00
2019-04-03T22:51:21.737Z,59.79
2019-04-03T22:54:02.464Z,59.68
2019-04-03T22:56:31.789Z,60.13
2019-04-03T22:59:01.357Z,60.50
2019-04-03T23:01:30.565Z,61.67
2019-04-03T23:03:59.835Z,61.98
2019-04-03T23:06:29.083Z,62.46
2019-04-03T23:08:58.349Z,62.93
2019-04-03T23:11:27.563Z,62.53
2019-04-03T23:13:56.839Z,63.20
2019-04-03T23:16:26.057Z,61.41
2019-04-03T23:18:55.363Z,60.86
2019-04-03T23:21:24.571Z,59.31
2019-04-03T23:23:53.838Z,59.61
2019-04-03T23:26:23.179Z,59.38
2019-04-03T23:28:52.387Z,58.77
2019-04-03T23:31:21.974Z,58.80
2019-04-03T23:33:51.182Z,58.70
2019-04-03T23:36:21.084Z,59.46
2019-04-03T23:38:51.400Z,60.27
2019-04-03T23:41:20.639Z,60.80
2019-04-03T23:43:49.862Z,60.41
2019-04-03T23:46:19.113Z,60.26
2019-04-03T23:48:49.029Z,60.13
2019-04-03T23:51:23.563Z,59.59
2019-04-03T23:53:50.773Z,59.94
2019-04-03T23:56:20.277Z,60.11
2019-04-03T23:58:49.803Z,59.56
